Serge-Frolow Ile Tromelin, Reunion
Current Conditions -  °F | °C
As of 9:30 PM on Thursday 23 Oct 2014 (Local Time) from FMEE Reporting Station
Few Clouds Few Clouds  
Wind Chill: 77°   Ceiling: Unl
Heat Index: 79°   Visibility: 6mi
Dew Point: 66°   Wind: 17mph
Humidity: 69%   Direction: 120°ESE
Pressure: 30.09"   Gusts: NA
Location:  15.88°S, 54.52°E
Report Text: FMEE 231730Z 12015KT 9999 FEW026 25/19 Q1019 NOSIG
Loading
Personal Weather Stations






























Interactive Weather Map
Tropical Storm Tracking
New forecast layout! Learn more

10-Day Weather Forecast

Advertisements
Track Severe Weather on mobile